createdAt,value
2018-08-24T00:00:18.627Z,992.77
2018-08-24T00:01:18.629Z,992.77
2018-08-24T00:02:18.632Z,992.79
2018-08-24T00:03:18.634Z,992.85
2018-08-24T00:04:18.636Z,992.88
2018-08-24T00:05:18.638Z,992.89
2018-08-24T00:06:18.642Z,992.89
2018-08-24T00:07:18.702Z,992.86
2018-08-24T00:08:18.643Z,992.88
2018-08-24T00:09:18.645Z,992.85
2018-08-24T00:10:18.649Z,992.76
2018-08-24T00:11:18.648Z,992.74
2018-08-24T00:12:18.650Z,992.71
2018-08-24T00:13:18.652Z,992.70
2018-08-24T00:14:18.655Z,992.73
2018-08-24T00:15:18.663Z,992.75
2018-08-24T00:16:18.660Z,992.80
2018-08-24T00:17:18.661Z,992.79
2018-08-24T00:18:18.667Z,992.77
2018-08-24T00:19:18.669Z,992.73
2018-08-24T00:20:18.665Z,992.72
2018-08-24T00:21:18.668Z,992.70
2018-08-24T00:22:18.671Z,992.71
2018-08-24T00:23:18.673Z,992.69
2018-08-24T00:24:18.679Z,992.71
2018-08-24T00:25:18.677Z,992.72
2018-08-24T00:26:18.695Z,992.70
2018-08-24T00:27:18.679Z,992.71
2018-08-24T00:28:18.682Z,992.68
2018-08-24T00:29:18.686Z,992.67
2018-08-24T00:30:18.686Z,992.68
2018-08-24T00:31:18.687Z,992.70
2018-08-24T00:32:18.690Z,992.65
2018-08-24T00:33:18.694Z,992.68
2018-08-24T00:34:18.697Z,992.68
2018-08-24T00:35:18.696Z,992.68
2018-08-24T00:36:18.699Z,992.69
2018-08-24T00:37:18.700Z,992.70
2018-08-24T00:38:18.702Z,992.70
2018-08-24T00:39:18.702Z,992.70
2018-08-24T00:40:18.707Z,992.72
2018-08-24T00:41:18.712Z,992.65
2018-08-24T00:42:18.714Z,992.63
2018-08-24T00:43:18.711Z,992.56
2018-08-24T00:44:18.714Z,992.62
2018-08-24T00:45:18.730Z,992.64
2018-08-24T00:46:18.739Z,992.64
2018-08-24T00:47:18.722Z,992.61
2018-08-24T00:48:18.723Z,992.61
2018-08-24T00:49:18.723Z,992.55
2018-08-24T00:50:18.725Z,992.62
2018-08-24T00:51:18.728Z,992.56
2018-08-24T00:52:18.728Z,992.59
2018-08-24T00:53:18.732Z,992.55
2018-08-24T00:54:18.734Z,992.57
2018-08-24T00:55:18.738Z,992.57
2018-08-24T00:56:18.739Z,992.57
2018-08-24T00:57:18.739Z,992.55
2018-08-24T00:58:18.743Z,992.62
2018-08-24T00:59:18.743Z,992.63
2018-08-24T01:00:18.747Z,992.66
2018-08-24T01:01:18.748Z,992.75
2018-08-24T01:02:18.749Z,992.71
2018-08-24T01:03:18.753Z,992.62
2018-08-24T01:04:18.836Z,992.60
2018-08-24T01:05:18.766Z,992.55
2018-08-24T01:06:18.756Z,992.51
2018-08-24T01:07:18.757Z,992.47
2018-08-24T01:08:18.759Z,992.55
2018-08-24T01:09:18.763Z,992.57
2018-08-24T01:10:18.764Z,992.58
2018-08-24T01:11:18.765Z,992.54
2018-08-24T01:12:18.771Z,992.55
2018-08-24T01:13:18.770Z,992.57
2018-08-24T01:14:18.772Z,992.58
2018-08-24T01:15:18.775Z,992.63
2018-08-24T01:16:18.778Z,992.66
2018-08-24T01:17:18.777Z,992.68
2018-08-24T01:18:18.778Z,992.66
2018-08-24T01:19:18.784Z,992.67
2018-08-24T01:20:18.782Z,992.66
2018-08-24T01:21:18.796Z,992.61
2018-08-24T01:22:18.797Z,992.63
2018-08-24T01:23:18.790Z,992.65
2018-08-24T01:24:18.789Z,992.61
2018-08-24T01:25:18.793Z,992.58
2018-08-24T01:26:18.795Z,992.53
2018-08-24T01:27:18.796Z,992.53
2018-08-24T01:28:18.797Z,992.49
2018-08-24T01:29:18.801Z,992.49
2018-08-24T01:30:18.802Z,992.47
2018-08-24T01:31:18.804Z,992.49
2018-08-24T01:32:18.806Z,992.50
2018-08-24T01:33:18.808Z,992.50
2018-08-24T01:34:18.810Z,992.52
2018-08-24T01:35:18.811Z,992.59
2018-08-24T01:36:18.812Z,992.62
2018-08-24T01:37:18.815Z,992.64
2018-08-24T01:38:18.818Z,992.65
2018-08-24T01:39:18.818Z,992.66
2018-08-24T01:40:18.822Z,992.71
2018-08-24T01:41:18.823Z,992.72
2018-08-24T01:42:18.826Z,992.73
2018-08-24T01:43:18.837Z,992.72
2018-08-24T01:44:18.828Z,992.70
2018-08-24T01:45:18.833Z,992.68
2018-08-24T01:46:18.831Z,992.65
2018-08-24T01:47:18.831Z,992.64
2018-08-24T01:48:18.836Z,992.60
2018-08-24T01:49:18.838Z,992.60
2018-08-24T01:50:18.840Z,992.63
2018-08-24T01:51:18.837Z,992.67
2018-08-24T01:52:18.845Z,992.66
2018-08-24T01:53:18.850Z,992.63
2018-08-24T01:54:18.847Z,992.63
2018-08-24T01:55:18.844Z,992.61
2018-08-24T01:56:18.850Z,992.61
2018-08-24T01:57:18.848Z,992.62
2018-08-24T01:58:18.853Z,992.67
2018-08-24T01:59:18.850Z,992.68
2018-08-24T02:00:18.853Z,992.71
2018-08-24T02:01:18.858Z,992.77
2018-08-24T02:02:18.858Z,992.84
2018-08-24T02:03:18.859Z,992.82
2018-08-24T02:04:18.869Z,992.85
2018-08-24T02:05:18.862Z,992.82
2018-08-24T02:06:18.874Z,992.81
2018-08-24T02:07:18.869Z,992.85
2018-08-24T02:08:18.871Z,992.84
2018-08-24T02:09:18.870Z,992.82
2018-08-24T02:10:18.878Z,992.84
2018-08-24T02:11:18.871Z,992.86
2018-08-24T02:12:18.875Z,992.87
2018-08-24T02:13:18.877Z,992.88
2018-08-24T02:14:18.919Z,992.83
2018-08-24T02:15:18.879Z,992.83
2018-08-24T02:16:18.881Z,992.83
2018-08-24T02:17:18.892Z,992.84
2018-08-24T02:18:18.885Z,992.88
2018-08-24T02:19:18.890Z,992.87
2018-08-24T02:20:18.891Z,992.91
2018-08-24T02:21:18.889Z,992.93
2018-08-24T02:22:18.904Z,992.95
2018-08-24T02:23:18.897Z,992.96
2018-08-24T02:24:18.894Z,992.95
2018-08-24T02:25:18.896Z,992.91
2018-08-24T02:26:18.898Z,992.96
2018-08-24T02:27:18.903Z,992.94
2018-08-24T02:28:18.900Z,992.91
2018-08-24T02:29:18.903Z,992.92
2018-08-24T02:30:18.907Z,992.90
2018-08-24T02:31:18.990Z,992.83
2018-08-24T02:32:18.909Z,992.87
2018-08-24T02:33:18.912Z,992.87
2018-08-24T02:34:18.914Z,992.88
2018-08-24T02:35:18.913Z,992.82
2018-08-24T02:36:18.917Z,992.80
2018-08-24T02:37:18.917Z,992.77
2018-08-24T02:38:18.923Z,992.72
2018-08-24T02:39:18.920Z,992.70
2018-08-24T02:40:18.922Z,992.70
2018-08-24T02:41:18.925Z,992.65
2018-08-24T02:42:18.937Z,992.65
2018-08-24T02:43:18.928Z,992.60
2018-08-24T02:44:18.932Z,992.58
2018-08-24T02:45:18.932Z,992.58
2018-08-24T02:46:18.934Z,992.59
2018-08-24T02:47:18.936Z,992.57
2018-08-24T02:48:18.937Z,992.54
2018-08-24T02:49:18.940Z,992.54
2018-08-24T02:50:18.945Z,992.56
2018-08-24T02:51:18.941Z,992.53
2018-08-24T02:52:18.944Z,992.54
2018-08-24T02:53:18.948Z,992.55
2018-08-24T02:54:18.973Z,992.59
2018-08-24T02:55:18.951Z,992.61
2018-08-24T02:56:18.952Z,992.64
2018-08-24T02:57:18.955Z,992.65
2018-08-24T02:58:18.995Z,992.64
2018-08-24T02:59:18.958Z,992.60
2018-08-24T03:00:18.975Z,992.67
2018-08-24T03:01:18.961Z,992.61
2018-08-24T03:02:18.991Z,992.61
2018-08-24T03:03:18.965Z,992.63
2018-08-24T03:04:18.971Z,992.60
2018-08-24T03:05:19.114Z,992.60
2018-08-24T03:06:18.973Z,992.61
2018-08-24T03:07:18.972Z,992.60
2018-08-24T03:08:19.025Z,992.61
2018-08-24T03:09:18.977Z,992.58
2018-08-24T03:10:18.979Z,992.60
2018-08-24T03:11:18.983Z,992.57
2018-08-24T03:12:18.983Z,992.52
2018-08-24T03:13:18.984Z,992.54
2018-08-24T03:14:18.986Z,992.49
2018-08-24T03:15:18.989Z,992.51
2018-08-24T03:16:19.039Z,992.49
2018-08-24T03:17:18.993Z,992.53
2018-08-24T03:18:40.009Z,992.56
2018-08-24T03:19:18.996Z,992.58
2018-08-24T03:20:18.997Z,992.53
2018-08-24T03:21:18.999Z,992.58
2018-08-24T03:22:19.000Z,992.55
2018-08-24T03:23:19.003Z,992.58
2018-08-24T03:24:19.003Z,992.58
2018-08-24T03:25:19.008Z,992.58
2018-08-24T03:26:19.014Z,992.60
2018-08-24T03:27:19.008Z,992.59
2018-08-24T03:28:19.013Z,992.60
2018-08-24T03:29:19.014Z,992.54
2018-08-24T03:30:19.020Z,992.53
2018-08-24T03:31:19.021Z,992.52
2018-08-24T03:32:19.032Z,992.54
2018-08-24T03:33:19.020Z,992.54
2018-08-24T03:34:19.021Z,992.56
2018-08-24T03:35:19.027Z,992.61
2018-08-24T03:36:19.036Z,992.61
2018-08-24T03:37:19.032Z,992.60
2018-08-24T03:38:19.033Z,992.61
2018-08-24T03:39:19.034Z,992.56
2018-08-24T03:40:19.032Z,992.58
2018-08-24T03:41:19.034Z,992.56
2018-08-24T03:42:19.040Z,992.59
2018-08-24T03:43:19.038Z,992.59
2018-08-24T03:44:19.040Z,992.60
2018-08-24T03:45:19.043Z,992.59
2018-08-24T03:46:19.048Z,992.59
2018-08-24T03:47:19.045Z,992.60
2018-08-24T03:48:19.046Z,992.62
2018-08-24T03:49:19.049Z,992.64
2018-08-24T03:50:19.053Z,992.61
2018-08-24T03:51:19.053Z,992.62
2018-08-24T03:52:19.054Z,992.62
2018-08-24T03:53:19.069Z,992.61
2018-08-24T03:54:19.059Z,992.62
2018-08-24T03:55:19.061Z,992.64
2018-08-24T03:56:19.063Z,992.64
2018-08-24T03:57:19.064Z,992.70
2018-08-24T03:58:19.066Z,992.73
2018-08-24T03:59:19.070Z,992.78
2018-08-24T04:00:19.069Z,992.76
2018-08-24T04:01:19.092Z,992.74
2018-08-24T04:02:19.074Z,992.75
2018-08-24T04:03:19.075Z,992.73
2018-08-24T04:04:19.080Z,992.69
2018-08-24T04:05:19.079Z,992.75
2018-08-24T04:06:19.087Z,992.79
2018-08-24T04:07:19.081Z,992.80
2018-08-24T04:08:19.084Z,992.77
2018-08-24T04:09:19.087Z,992.83
2018-08-24T04:10:19.088Z,992.76
2018-08-24T04:11:19.092Z,992.76
2018-08-24T04:12:19.094Z,992.76
2018-08-24T04:13:19.095Z,992.80
2018-08-24T04:14:19.095Z,992.82
2018-08-24T04:15:19.099Z,992.84
2018-08-24T04:16:19.101Z,992.82
2018-08-24T04:17:19.101Z,992.80
2018-08-24T04:18:19.108Z,992.83
2018-08-24T04:19:19.164Z,992.82
2018-08-24T04:20:19.106Z,992.82
2018-08-24T04:21:19.108Z,992.84
2018-08-24T04:22:19.118Z,992.86
2018-08-24T04:23:19.111Z,992.85
2018-08-24T04:24:19.115Z,992.84
2018-08-24T04:25:19.121Z,992.83
2018-08-24T04:26:19.118Z,992.86
2018-08-24T04:27:19.120Z,992.88
2018-08-24T04:28:19.120Z,992.85
2018-08-24T04:29:19.124Z,992.84
2018-08-24T04:30:19.127Z,992.84
2018-08-24T04:31:19.126Z,992.86
2018-08-24T04:32:19.132Z,992.86
2018-08-24T04:33:19.130Z,992.87
2018-08-24T04:34:20.795Z,992.89
2018-08-24T04:35:19.137Z,992.85
2018-08-24T04:36:19.136Z,992.87
2018-08-24T04:37:19.138Z,992.86
2018-08-24T04:38:19.144Z,992.88
2018-08-24T04:39:19.143Z,992.89
2018-08-24T04:40:19.158Z,992.88
2018-08-24T04:41:19.146Z,992.91
2018-08-24T04:42:19.148Z,992.89
2018-08-24T04:43:19.157Z,992.92
2018-08-24T04:44:19.151Z,992.94
2018-08-24T04:45:19.157Z,993.03
2018-08-24T04:46:19.159Z,992.99
2018-08-24T04:47:19.159Z,993.01
2018-08-24T04:48:19.161Z,993.05
2018-08-24T04:49:19.171Z,993.04
2018-08-24T04:50:19.163Z,992.99
2018-08-24T04:51:19.169Z,993.00
2018-08-24T04:52:19.166Z,992.96
2018-08-24T04:53:19.173Z,992.91
2018-08-24T04:54:19.171Z,992.93
2018-08-24T04:55:19.172Z,992.97
2018-08-24T04:56:19.174Z,992.96
2018-08-24T04:57:19.176Z,992.99
2018-08-24T04:58:19.258Z,992.95
2018-08-24T04:59:19.182Z,992.97
2018-08-24T05:00:19.188Z,992.98
2018-08-24T05:01:19.186Z,993.00
2018-08-24T05:02:19.187Z,993.00
2018-08-24T05:03:19.187Z,993.00
2018-08-24T05:04:19.191Z,992.97
2018-08-24T05:05:19.190Z,993.07
2018-08-24T05:06:19.195Z,993.05
2018-08-24T05:07:19.194Z,993.10
2018-08-24T05:08:19.196Z,993.12
2018-08-24T05:09:19.198Z,993.13
2018-08-24T05:10:19.205Z,993.13
2018-08-24T05:11:19.203Z,993.16
2018-08-24T05:12:19.206Z,993.13
2018-08-24T05:13:19.207Z,993.18
2018-08-24T05:14:19.210Z,993.16
2018-08-24T05:15:19.213Z,993.17
2018-08-24T05:16:19.228Z,993.16
2018-08-24T05:17:19.219Z,993.14
2018-08-24T05:18:19.215Z,993.15
2018-08-24T05:19:19.223Z,993.19
2018-08-24T05:20:19.227Z,993.20
2018-08-24T05:21:19.268Z,993.19
2018-08-24T05:22:19.224Z,993.23
2018-08-24T05:23:19.225Z,993.20
2018-08-24T05:24:19.225Z,993.20
2018-08-24T05:25:19.228Z,993.23
2018-08-24T05:26:19.233Z,993.19
2018-08-24T05:27:19.236Z,993.21
2018-08-24T05:28:19.234Z,993.18
2018-08-24T05:29:19.237Z,993.17
2018-08-24T05:30:19.238Z,993.23
2018-08-24T05:31:19.238Z,993.19
2018-08-24T05:32:19.241Z,993.20
2018-08-24T05:33:19.246Z,993.22
2018-08-24T05:34:19.245Z,993.23
2018-08-24T05:35:19.247Z,993.27
2018-08-24T05:36:19.257Z,993.20
2018-08-24T05:37:19.260Z,993.25
2018-08-24T05:38:19.264Z,993.22
2018-08-24T05:39:19.514Z,993.18
2018-08-24T05:40:20.004Z,993.18
2018-08-24T05:41:19.325Z,993.22
2018-08-24T05:42:19.266Z,993.24
2018-08-24T05:43:19.268Z,993.32
2018-08-24T05:44:19.266Z,993.32
2018-08-24T05:45:19.268Z,993.26
2018-08-24T05:46:19.270Z,993.23
2018-08-24T05:47:19.506Z,993.19
2018-08-24T05:48:19.274Z,993.24
2018-08-24T05:49:19.283Z,993.22
2018-08-24T05:50:19.279Z,993.28
2018-08-24T05:51:20.087Z,993.28
2018-08-24T05:52:19.514Z,993.27
2018-08-24T05:53:19.290Z,993.33
2018-08-24T05:54:19.290Z,993.33
2018-08-24T05:55:19.292Z,993.33
2018-08-24T05:56:20.091Z,993.39
2018-08-24T05:57:19.300Z,993.37
2018-08-24T05:58:19.299Z,993.35
2018-08-24T05:59:19.304Z,993.35
2018-08-24T06:00:19.306Z,993.35
2018-08-24T06:01:19.308Z,993.36
2018-08-24T06:02:19.309Z,993.36
2018-08-24T06:03:19.314Z,993.38
2018-08-24T06:04:19.313Z,993.32
2018-08-24T06:05:19.319Z,993.34
2018-08-24T06:06:19.321Z,993.35
2018-08-24T06:07:19.322Z,993.32
2018-08-24T06:08:19.325Z,993.33
2018-08-24T06:09:20.104Z,993.37
2018-08-24T06:10:19.335Z,993.36
2018-08-24T06:11:19.366Z,993.37
2018-08-24T06:12:19.475Z,993.36
2018-08-24T06:13:19.392Z,993.31
2018-08-24T06:14:19.337Z,993.31
2018-08-24T06:15:20.753Z,993.36
2018-08-24T06:16:19.730Z,993.37
2018-08-24T06:17:19.345Z,993.40
2018-08-24T06:18:19.348Z,993.41
2018-08-24T06:19:19.353Z,993.40
2018-08-24T06:20:19.363Z,993.36
2018-08-24T06:21:19.357Z,993.40
2018-08-24T06:22:19.378Z,993.40
2018-08-24T06:23:19.361Z,993.39
2018-08-24T06:24:19.381Z,993.40
2018-08-24T06:25:19.365Z,993.36
2018-08-24T06:26:19.368Z,993.41
2018-08-24T06:27:19.370Z,993.43
2018-08-24T06:28:19.387Z,993.40
2018-08-24T06:29:19.375Z,993.40
2018-08-24T06:30:19.380Z,993.41
2018-08-24T06:31:19.383Z,993.44
2018-08-24T06:32:19.390Z,993.40
2018-08-24T06:33:19.416Z,993.43
2018-08-24T06:34:19.389Z,993.41
2018-08-24T06:35:19.390Z,993.43
2018-08-24T06:36:19.395Z,993.45
2018-08-24T06:37:19.402Z,993.45
2018-08-24T06:38:19.412Z,993.42
2018-08-24T06:39:19.400Z,993.38
2018-08-24T06:40:19.405Z,993.40
2018-08-24T06:41:19.405Z,993.40
2018-08-24T06:42:19.421Z,993.42
2018-08-24T06:43:19.423Z,993.42
2018-08-24T06:44:19.459Z,993.47
2018-08-24T06:45:19.426Z,993.44
2018-08-24T06:46:19.425Z,993.45
2018-08-24T06:47:19.437Z,993.43
2018-08-24T06:48:19.434Z,993.43
2018-08-24T06:49:19.428Z,993.44
2018-08-24T06:50:19.430Z,993.44
2018-08-24T06:51:19.435Z,993.49
2018-08-24T06:52:19.436Z,993.49
2018-08-24T06:53:19.578Z,993.48
2018-08-24T06:54:19.456Z,993.46
2018-08-24T06:55:19.446Z,993.48
2018-08-24T06:56:19.448Z,993.45
2018-08-24T06:57:19.448Z,993.47
2018-08-24T06:58:19.453Z,993.44
2018-08-24T06:59:19.453Z,993.48
2018-08-24T07:00:19.457Z,993.49
2018-08-24T07:01:19.464Z,993.50
2018-08-24T07:02:19.474Z,993.53
2018-08-24T07:03:19.484Z,993.49
2018-08-24T07:04:19.468Z,993.44
2018-08-24T07:05:19.471Z,993.48
2018-08-24T07:06:19.477Z,993.52
2018-08-24T07:07:19.502Z,993.48
2018-08-24T07:08:19.477Z,993.45
2018-08-24T07:09:19.482Z,993.46
2018-08-24T07:10:19.489Z,993.42
2018-08-24T07:11:19.491Z,993.45
2018-08-24T07:12:19.489Z,993.46
2018-08-24T07:13:19.492Z,993.47
2018-08-24T07:14:19.495Z,993.45
2018-08-24T07:15:19.512Z,993.50
2018-08-24T07:16:19.501Z,993.45
2018-08-24T07:17:19.507Z,993.50
2018-08-24T07:18:19.508Z,993.50
2018-08-24T07:19:19.512Z,993.48
2018-08-24T07:20:19.514Z,993.49
2018-08-24T07:21:19.522Z,993.50
2018-08-24T07:22:19.563Z,993.53
2018-08-24T07:23:19.980Z,993.52
2018-08-24T07:24:19.527Z,993.49
2018-08-24T07:25:19.532Z,993.50
2018-08-24T07:26:19.537Z,993.51
2018-08-24T07:27:19.639Z,993.49
2018-08-24T07:28:19.542Z,993.50
2018-08-24T07:29:19.543Z,993.46
2018-08-24T07:30:19.547Z,993.49
2018-08-24T07:31:19.662Z,993.46
2018-08-24T07:32:19.558Z,993.48
2018-08-24T07:33:19.560Z,993.48
2018-08-24T07:34:19.562Z,993.47
2018-08-24T07:35:19.574Z,993.47
2018-08-24T07:36:19.567Z,993.47
2018-08-24T07:37:19.572Z,993.46
2018-08-24T07:38:19.656Z,993.46
2018-08-24T07:39:19.589Z,993.48
2018-08-24T07:40:19.597Z,993.53
2018-08-24T07:41:19.653Z,993.49
2018-08-24T07:42:19.588Z,993.51
2018-08-24T07:43:19.594Z,993.53
2018-08-24T07:44:19.737Z,993.50
2018-08-24T07:45:20.130Z,993.49
2018-08-24T07:46:19.604Z,993.47
2018-08-24T07:47:19.611Z,993.44
2018-08-24T07:48:19.607Z,993.47
2018-08-24T07:49:19.611Z,993.45
2018-08-24T07:50:19.615Z,993.48
2018-08-24T07:51:19.640Z,993.46
2018-08-24T07:52:20.746Z,993.46
2018-08-24T07:53:19.639Z,993.46
2018-08-24T07:54:20.253Z,993.46
2018-08-24T07:55:19.630Z,993.43
2018-08-24T07:56:19.635Z,993.47
2018-08-24T07:57:19.639Z,993.49
2018-08-24T07:58:19.681Z,993.49
2018-08-24T07:59:19.645Z,993.54
2018-08-24T08:00:19.649Z,993.55
2018-08-24T08:01:19.652Z,993.55
2018-08-24T08:02:19.657Z,993.57
2018-08-24T08:03:19.659Z,993.57
2018-08-24T08:04:19.668Z,993.56
2018-08-24T08:05:19.691Z,993.55
2018-08-24T08:06:19.670Z,993.59
2018-08-24T08:07:19.709Z,993.61
2018-08-24T08:08:19.749Z,993.61
2018-08-24T08:09:19.683Z,993.65
2018-08-24T08:10:19.688Z,993.64
2018-08-24T08:11:19.690Z,993.62
2018-08-24T08:12:19.693Z,993.60
2018-08-24T08:13:19.698Z,993.65
2018-08-24T08:14:19.701Z,993.63
2018-08-24T08:15:19.706Z,993.63
2018-08-24T08:16:19.713Z,993.60
2018-08-24T08:17:19.723Z,993.63
2018-08-24T08:18:19.865Z,993.59
2018-08-24T08:19:19.722Z,993.62
2018-08-24T08:20:19.727Z,993.59
2018-08-24T08:21:19.728Z,993.61
2018-08-24T08:22:19.733Z,993.64
2018-08-24T08:23:19.862Z,993.67
2018-08-24T08:24:19.746Z,993.70
2018-08-24T08:25:19.746Z,993.67
2018-08-24T08:26:19.751Z,993.64
2018-08-24T08:27:19.752Z,993.63
2018-08-24T08:28:19.756Z,993.64
2018-08-24T08:29:19.760Z,993.64
2018-08-24T08:30:19.764Z,993.66
2018-08-24T08:31:19.769Z,993.68
2018-08-24T08:32:19.771Z,993.74
2018-08-24T08:33:19.775Z,993.71
2018-08-24T08:34:19.902Z,993.70
2018-08-24T08:35:19.786Z,993.73
2018-08-24T08:36:19.797Z,993.77
2018-08-24T08:37:19.795Z,993.74
2018-08-24T08:38:19.804Z,993.83
2018-08-24T08:39:19.804Z,993.75
2018-08-24T08:40:19.948Z,993.79
2018-08-24T08:41:19.810Z,993.69
2018-08-24T08:42:19.812Z,993.67
2018-08-24T08:43:19.819Z,993.69
2018-08-24T08:44:19.825Z,993.67
2018-08-24T08:45:19.859Z,993.71
2018-08-24T08:46:19.829Z,993.71
2018-08-24T08:47:19.832Z,993.67
2018-08-24T08:48:19.856Z,993.70
2018-08-24T08:49:19.844Z,993.69
2018-08-24T08:50:19.844Z,993.70
2018-08-24T08:51:19.847Z,993.72
2018-08-24T08:52:19.853Z,993.77
2018-08-24T08:53:19.910Z,993.73
2018-08-24T08:54:19.866Z,993.71
2018-08-24T08:55:19.875Z,993.76
2018-08-24T08:56:19.872Z,993.73
2018-08-24T08:57:19.881Z,993.74
2018-08-24T08:58:19.904Z,993.72
2018-08-24T08:59:19.880Z,993.80
2018-08-24T09:00:19.885Z,993.80
2018-08-24T09:01:19.892Z,993.79
2018-08-24T09:02:19.995Z,993.90
2018-08-24T09:03:19.905Z,993.80
2018-08-24T09:04:19.906Z,993.79
2018-08-24T09:05:19.907Z,993.80
2018-08-24T09:06:19.924Z,993.84
2018-08-24T09:07:19.915Z,993.88
2018-08-24T09:08:19.922Z,993.83
2018-08-24T09:09:19.929Z,993.88
2018-08-24T09:10:19.930Z,993.90
2018-08-24T09:11:20.108Z,994.00
2018-08-24T09:12:19.938Z,993.98
2018-08-24T09:13:19.942Z,993.94
2018-08-24T09:14:19.948Z,993.94
2018-08-24T09:15:19.953Z,993.92
2018-08-24T09:16:19.955Z,993.97
2018-08-24T09:17:19.976Z,993.98
2018-08-24T09:18:20.024Z,993.97
2018-08-24T09:19:19.967Z,993.92
2018-08-24T09:20:19.976Z,993.94
2018-08-24T09:21:20.343Z,994.02
2018-08-24T09:22:21.118Z,993.98
2018-08-24T09:23:19.990Z,994.01
2018-08-24T09:24:19.995Z,993.98
2018-08-24T09:25:20.101Z,994.08
2018-08-24T09:26:20.000Z,994.02
2018-08-24T09:27:20.029Z,993.96
2018-08-24T09:28:20.010Z,993.97
2018-08-24T09:29:20.013Z,993.94
2018-08-24T09:30:20.056Z,993.95
2018-08-24T09:31:20.022Z,993.98
2018-08-24T09:32:20.091Z,993.97
2018-08-24T09:33:20.032Z,993.99
2018-08-24T09:34:20.035Z,994.00
2018-08-24T09:35:20.040Z,994.01
2018-08-24T09:36:20.046Z,994.02
2018-08-24T09:37:20.056Z,994.00
2018-08-24T09:38:20.057Z,994.06
2018-08-24T09:39:20.060Z,994.03
2018-08-24T09:40:20.102Z,994.07
2018-08-24T09:41:20.078Z,994.04
2018-08-24T09:42:20.073Z,994.06
2018-08-24T09:43:20.079Z,994.05
2018-08-24T09:44:20.082Z,994.07
2018-08-24T09:45:20.090Z,994.09
2018-08-24T09:46:20.092Z,994.09
2018-08-24T09:47:20.097Z,994.18
2018-08-24T09:48:20.100Z,994.18
2018-08-24T09:49:20.107Z,994.13
2018-08-24T09:50:20.112Z,994.08
2018-08-24T09:51:20.139Z,994.06
2018-08-24T09:52:20.120Z,994.07
2018-08-24T09:53:20.224Z,994.03
2018-08-24T09:54:20.132Z,994.01
2018-08-24T09:55:20.134Z,994.01
2018-08-24T09:56:20.136Z,994.02
2018-08-24T09:57:20.148Z,993.94
2018-08-24T09:58:20.153Z,993.96
2018-08-24T09:59:20.152Z,993.97
2018-08-24T10:00:20.154Z,993.93
2018-08-24T10:01:20.174Z,993.98
2018-08-24T10:02:20.164Z,993.98
2018-08-24T10:03:20.167Z,993.99
2018-08-24T10:04:20.628Z,994.00
2018-08-24T10:05:20.198Z,993.99
2018-08-24T10:06:20.216Z,993.98
2018-08-24T10:07:20.196Z,993.98
2018-08-24T10:08:20.195Z,993.96
2018-08-24T10:09:20.196Z,993.96
2018-08-24T10:10:20.208Z,993.95
2018-08-24T10:11:20.208Z,994.00
2018-08-24T10:12:20.210Z,993.91
2018-08-24T10:13:20.336Z,993.93
2018-08-24T10:14:20.219Z,993.94
2018-08-24T10:15:20.227Z,993.93
2018-08-24T10:16:20.228Z,993.95
2018-08-24T10:17:20.234Z,993.95
2018-08-24T10:18:20.250Z,993.89
2018-08-24T10:19:20.243Z,993.88
2018-08-24T10:20:20.250Z,993.90
2018-08-24T10:21:20.387Z,993.84
2018-08-24T10:22:20.257Z,993.83
2018-08-24T10:23:20.271Z,993.77
2018-08-24T10:24:20.432Z,993.85
2018-08-24T10:25:20.406Z,993.79
2018-08-24T10:26:20.278Z,993.83
2018-08-24T10:27:20.398Z,993.82
2018-08-24T10:28:21.192Z,993.76
2018-08-24T10:29:20.374Z,993.80
2018-08-24T10:30:20.296Z,993.76
2018-08-24T10:31:20.305Z,993.83
2018-08-24T10:32:20.304Z,993.73
2018-08-24T10:33:20.309Z,993.80
2018-08-24T10:34:20.315Z,993.81
2018-08-24T10:35:21.201Z,993.77
2018-08-24T10:36:20.545Z,993.77
2018-08-24T10:37:20.329Z,993.78
2018-08-24T10:38:20.341Z,993.83
2018-08-24T10:39:20.338Z,993.85
2018-08-24T10:40:20.375Z,993.84
2018-08-24T10:41:21.201Z,993.86
2018-08-24T10:42:20.354Z,993.89
2018-08-24T10:43:20.360Z,993.94
2018-08-24T10:44:20.361Z,993.91
2018-08-24T10:45:20.369Z,993.96
2018-08-24T10:46:20.372Z,994.02
2018-08-24T10:47:20.404Z,993.98
2018-08-24T10:48:20.382Z,994.01
2018-08-24T10:49:20.419Z,993.96
2018-08-24T10:50:20.420Z,993.99
2018-08-24T10:51:20.399Z,994.01
2018-08-24T10:52:20.398Z,993.93
2018-08-24T10:53:20.403Z,993.97
2018-08-24T10:54:20.410Z,993.95
2018-08-24T10:55:20.427Z,993.96
2018-08-24T10:56:20.420Z,993.96
2018-08-24T10:57:20.433Z,994.00
2018-08-24T10:58:20.453Z,993.96
2018-08-24T10:59:20.437Z,993.98
2018-08-24T11:00:20.438Z,993.97
2018-08-24T11:01:20.440Z,993.96
2018-08-24T11:02:20.507Z,993.98
2018-08-24T11:03:20.454Z,993.99
2018-08-24T11:04:20.467Z,993.98
2018-08-24T11:05:20.524Z,993.98
2018-08-24T11:06:20.466Z,994.01
2018-08-24T11:07:20.555Z,993.97
2018-08-24T11:08:20.471Z,993.99
2018-08-24T11:09:20.480Z,993.95
2018-08-24T11:10:20.481Z,994.02
2018-08-24T11:11:20.490Z,994.04
2018-08-24T11:12:20.489Z,994.04
2018-08-24T11:13:20.497Z,994.06
2018-08-24T11:14:20.499Z,994.07
2018-08-24T11:15:20.502Z,994.07
2018-08-24T11:16:20.517Z,994.14
2018-08-24T11:17:20.517Z,994.16
2018-08-24T11:18:20.520Z,994.16
2018-08-24T11:19:20.522Z,994.11
2018-08-24T11:20:20.524Z,994.11
2018-08-24T11:21:20.528Z,994.08
2018-08-24T11:22:20.533Z,994.02
2018-08-24T11:23:20.537Z,993.99
2018-08-24T11:24:20.566Z,994.01
2018-08-24T11:25:20.545Z,994.01
2018-08-24T11:26:20.653Z,993.99
2018-08-24T11:27:20.554Z,994.03
2018-08-24T11:28:20.558Z,993.95
2018-08-24T11:29:20.611Z,994.03
2018-08-24T11:30:20.572Z,994.02
2018-08-24T11:31:20.572Z,994.01
2018-08-24T11:32:20.581Z,994.00
2018-08-24T11:33:20.585Z,994.01
2018-08-24T11:34:20.597Z,993.94
2018-08-24T11:35:20.594Z,993.98
2018-08-24T11:36:20.701Z,993.97
2018-08-24T11:37:23.220Z,993.96
2018-08-24T11:38:20.604Z,993.96
2018-08-24T11:39:20.609Z,994.01
2018-08-24T11:40:20.611Z,993.98
2018-08-24T11:41:20.617Z,994.18
2018-08-24T11:42:20.621Z,994.02
2018-08-24T11:43:20.624Z,994.06
2018-08-24T11:44:20.632Z,994.11
2018-08-24T11:45:20.636Z,994.14
2018-08-24T11:46:20.639Z,994.10
2018-08-24T11:47:20.645Z,994.20
2018-08-24T11:48:20.652Z,994.16
2018-08-24T11:49:20.654Z,994.15
2018-08-24T11:50:20.749Z,994.22
2018-08-24T11:51:20.661Z,994.17
2018-08-24T11:52:20.665Z,994.13
2018-08-24T11:53:20.669Z,994.22
2018-08-24T11:54:20.696Z,994.22
2018-08-24T11:55:20.679Z,994.20
2018-08-24T11:56:20.684Z,994.24
2018-08-24T11:57:20.692Z,994.24
2018-08-24T11:58:20.694Z,994.33
2018-08-24T11:59:20.699Z,994.23
2018-08-24T12:00:20.703Z,994.29
2018-08-24T12:01:20.716Z,994.37
2018-08-24T12:02:20.714Z,994.34
2018-08-24T12:03:20.718Z,994.33
2018-08-24T12:04:21.693Z,994.32
2018-08-24T12:05:20.728Z,994.39
2018-08-24T12:06:20.733Z,994.40
2018-08-24T12:07:20.767Z,994.36
2018-08-24T12:08:20.814Z,994.43
2018-08-24T12:09:20.746Z,994.51
2018-08-24T12:10:20.753Z,994.50
2018-08-24T12:11:20.754Z,994.52
2018-08-24T12:12:20.799Z,994.53
2018-08-24T12:13:20.788Z,994.58
2018-08-24T12:14:20.894Z,994.73
2018-08-24T12:15:20.772Z,994.63
2018-08-24T12:16:20.779Z,994.64
2018-08-24T12:17:20.784Z,994.71
2018-08-24T12:18:20.792Z,994.73
2018-08-24T12:19:20.797Z,994.73
2018-08-24T12:20:20.808Z,994.72
2018-08-24T12:21:20.897Z,994.73
2018-08-24T12:22:20.809Z,994.88
2018-08-24T12:23:20.809Z,994.78
2018-08-24T12:24:20.857Z,994.83
2018-08-24T12:25:20.820Z,994.77
2018-08-24T12:26:20.825Z,994.76
2018-08-24T12:27:20.831Z,994.79
2018-08-24T12:28:20.842Z,994.82